East Farms, Washington
Current Conditions -  °F | °C
As of 1:53 PM on Sunday 23 Nov 2014 (Local Time) from KSFF Reporting Station
Light Rain Light Rain  
Wind Chill:   Ceiling: 2400
Heat Index:   Visibility: 10mi
Dew Point:   Wind: 15mph
Humidity: 74%   Direction: 240°WSW
Pressure: 29.99"   Gusts: 29mph
Location:  47.7153°N, 117.066°W
Report Text: KSFF 232153Z 24013G25KT 10SM -RA BKN024 OVC055 06/02 A2999 RMK AO2 PK WND 22029/2108 RAB05E20B48 SLP167 P0001 T00610017
Loading
Personal Weather Stations






























Interactive Weather Map New forecast layout! Learn more

10-Day Weather Forecast

Advertisements
Track Severe Weather on mobile